Ponte Vedra Beach, FL

5:42 PM EDT on August 03, 2015 (GMT -0400)
Bartram Springs | | Change Station
CLOSE
Current Station
Personal Weather Station
Location: Jacksonville, FL
Elevation: 46 ft
Nearby Weather Stations

Elev 46 ft 30.12 °N, 81.51 °W | Updated 21 seconds ago

Thunderstorm
Thunderstorm
78.4 °F
Feels Like 81 °F
N
0.0
Wind Variable Wind from South
Gusts 0.0 mph

Today
High -- | Low -- °F
--% Chance of Precip.
Yesterday
High -- | Low -- °F
Precip. -- in
6:45 AM 8:17 PM
Waning Gibbous, 84% visible
Pressure 29.86 in
Visibility 10.0 miles
Clouds Few 1000 ft
Mostly Cloudy 5000 ft
Mostly Cloudy 20000 ft
Heat Index 81 °F
Dew Point 70 °F
Humidity 76%
Rainfall 0.56 in
Snow Depth Not available.
UV 3 out of 12
Pollen 2.50 out of 12
Air Quality Not available.
Flu Activity Not available.
SPECI KNIP 032121Z 24005KT 10SM FEW010 BKN050 BKN200 29/25 A2986 RMK AO2 RAE08 TSE21 CB DSNT SW T1 SET P0001 T02890250 $

More Conditions Fewer Conditions

Pressure 29.86 in
Visibility 10.0 miles
Clouds Few 1000 ft
Mostly Cloudy 5000 ft
Mostly Cloudy 20000 ft
Heat Index 81 °F
Dew Point 70 °F
Humidity 76%
Rainfall 0.56 in
Snow Depth Not available.
UV 3 out of 12
Pollen 2.50 out of 12
Air Quality Not available.
Flu Activity Not available.
SPECI KNIP 032121Z 24005KT 10SM FEW010 BKN050 BKN200 29/25 A2986 RMK AO2 RAE08 TSE21 CB DSNT SW T1 SET P0001 T02890250 $

More Conditions Fewer Conditions

10-Day Weather Forecast

×

Almanac

Astronomy

Aug. 03, 2015 Rise Set
Actual Time
Civil Twilight
Nautical Twilight
Astronomical Twilight
Moon
Length of Visible Light
Length of Day
Tomorrow will be .
, % of the Moon is Illuminated

Today's Extremes

State Highs State Lows

Community

WunderPhotos

Upload Photos

1,843,770 photos uploaded!

WunderBlogs® & News

Nearby

Air Quality

  Air Quality AQ Index Pollutant
Not available.

Snow Depth

Station Depth Elevation

Earthquake Activity

City Distance Mag. Time & Date
Minimum magnitude displayed is 2.5.

Coastal Water Temperatures

Place Temperature

Stations

Nearby Weather Stations

Station Location Temp. Windchill Dew Point Humidity Wind Precip. Elev Updated Type